Time;durP1;ratioP1;P1;durP2;ratioP2;P2;SDS_P1;SDS_P2;PMS_P1;PMS_P2;Temp;Humidity;BMP_temperature;BMP_pressure;BME280_temperature;BME280_humidity;BME280_pressure;Samples;Min_cycle;Max_cycle;Signal;HPM_P1;HPM_P2
2021/03/15 00:01:04;;;;;;;3.45;1.20;;;;;;;18.78;53.70;100971.06;5053767;28;20036;-71
2021/03/15 00:03:30;;;;;;;2.10;1.30;;;;;;;18.80;53.72;100971.94;5072534;28;20462;-71
2021/03/15 00:05:55;;;;;;;6.35;2.00;;;;;;;18.76;53.80;100967.59;5053867;28;20043;-71
2021/03/15 00:08:21;;;;;;;3.00;1.52;;;;;;;18.79;53.91;100970.19;5070185;28;20024;-71
2021/03/15 00:10:47;;;;;;;5.07;1.85;;;;;;;18.81;53.70;100975.44;5053991;28;20024;-71
2021/03/15 00:13:14;;;;;;;2.53;1.30;;;;;;;18.81;53.80;100967.56;5072061;28;20037;-72
2021/03/15 00:15:40;;;;;;;3.65;1.63;;;;;;;18.79;53.55;100971.94;5039912;28;20090;-72
2021/03/15 00:18:06;;;;;;;1.77;1.08;;;;;;;18.79;53.61;100969.31;5057670;28;20036;-71
2021/03/15 00:20:32;;;;;;;4.55;1.08;;;;;;;18.79;53.67;100969.31;5057240;28;20020;-71
2021/03/15 00:22:58;;;;;;;3.22;1.33;;;;;;;18.74;53.69;100974.56;5058665;28;20028;-71
2021/03/15 00:25:24;;;;;;;2.90;1.27;;;;;;;18.74;53.58;100964.09;5041055;28;20403;-71
2021/03/15 00:27:49;;;;;;;2.55;1.50;;;;;;;18.75;53.55;100975.44;5057568;28;20029;-72
2021/03/15 00:30:17;;;;;;;1.83;0.90;;;;;;;18.76;53.80;100979.81;5057901;28;20039;-72
2021/03/15 00:32:44;;;;;;;3.67;1.58;;;;;;;18.77;53.72;100981.56;5075153;28;20043;-72
2021/03/15 00:35:12;;;;;;;1.63;1.05;;;;;;;18.75;53.79;100984.19;5075739;28;20039;-71
2021/03/15 00:37:37;;;;;;;3.92;1.52;;;;;;;18.72;53.79;100986.78;5076349;28;20025;-71
2021/03/15 00:40:05;;;;;;;2.10;0.80;;;;;;;18.68;53.84;100974.59;5039757;28;20039;-72
2021/03/15 00:42:31;;;;;;;2.35;1.08;;;;;;;18.69;53.38;100980.72;5074804;28;20044;-72
2021/03/15 00:44:56;;;;;;;3.35;0.90;;;;;;;18.70;53.72;100985.94;5076178;28;20455;-72
2021/03/15 00:47:21;;;;;;;1.92;0.88;;;;;;;18.66;53.75;100978.09;5040757;28;20021;-71
2021/03/15 00:49:47;;;;;;;1.70;0.82;;;;;;;18.66;53.83;100978.09;5074883;28;20027;-71
2021/03/15 00:52:12;;;;;;;3.10;1.20;;;;;;;18.68;53.60;100985.09;5058315;28;20024;-71
2021/03/15 00:54:38;;;;;;;2.55;1.38;;;;;;;18.72;53.73;100993.78;5041169;28;20090;-71
2021/03/15 00:57:03;;;;;;;2.38;1.25;;;;;;;18.67;53.76;100987.72;5067333;28;20479;-72
2021/03/15 00:59:28;;;;;;;3.20;1.10;;;;;;;18.71;53.95;100992.03;5037019;28;20057;-72
2021/03/15 01:01:54;;;;;;;1.85;1.00;;;;;;;18.69;53.83;100992.06;5054317;28;20454;-71
2021/03/15 01:04:19;;;;;;;1.80;1.00;;;;;;;18.70;53.54;101000.78;5036995;28;20044;-71
2021/03/15 01:06:45;;;;;;;3.53;1.60;;;;;;;18.69;53.83;100999.94;5054231;28;20111;-72
2021/03/15 01:09:11;;;;;;;2.90;1.63;;;;;;;18.70;53.64;100998.16;5053434;28;20048;-71
2021/03/15 01:11:40;;;;;;;2.50;1.42;;;;;;;18.69;53.81;101005.16;5053584;28;20033;-71
2021/03/15 01:14:06;;;;;;;2.05;0.80;;;;;;;18.68;53.75;101003.44;5054334;28;20036;-71
2021/03/15 01:16:31;;;;;;;2.25;1.10;;;;;;;18.69;53.67;100997.31;5054348;28;20033;-71
2021/03/15 01:18:57;;;;;;;2.08;1.00;;;;;;;18.61;53.69;100991.22;5053382;28;20068;-72
2021/03/15 01:21:22;;;;;;;1.67;0.80;;;;;;;18.61;53.97;100993.81;5054505;28;20021;-71
2021/03/15 01:23:48;;;;;;;2.53;1.15;;;;;;;18.61;53.58;100991.22;5036479;28;20055;-72
2021/03/15 01:26:13;;;;;;;2.33;1.00;;;;;;;18.66;53.68;100996.44;5033977;28;20025;-71
2021/03/15 01:28:39;;;;;;;3.20;1.10;;;;;;;18.67;53.89;100995.56;5053380;28;20060;-71
2021/03/15 01:31:04;;;;;;;2.30;1.10;;;;;;;18.57;53.75;100987.69;5052766;28;20483;-71
2021/03/15 01:33:29;;;;;;;1.48;0.85;;;;;;;18.59;53.58;100978.97;5054248;28;20487;-71
2021/03/15 01:35:55;;;;;;;2.80;1.00;;;;;;;18.64;53.62;100987.72;5052693;28;20033;-71
2021/03/15 01:38:21;;;;;;;3.65;0.95;;;;;;;18.59;53.99;100984.22;5070036;28;20033;-71
2021/03/15 01:40:47;;;;;;;1.20;0.82;;;;;;;18.56;53.66;100985.09;5054820;28;20111;-71
2021/03/15 01:43:13;;;;;;;3.95;1.25;;;;;;;18.57;54.01;100982.44;5054806;28;20101;-71
2021/03/15 01:45:38;;;;;;;2.70;1.52;;;;;;;18.64;53.68;100998.19;5051856;28;20037;-71
2021/03/15 01:48:06;;;;;;;0.90;0.63;;;;;;;18.59;53.60;100989.47;5069442;28;20032;-71
2021/03/15 01:50:32;;;;;;;1.52;0.70;;;;;;;18.59;53.67;100990.34;5054583;28;20379;-71
2021/03/15 01:52:57;;;;;;;1.60;0.90;;;;;;;18.63;53.57;101004.31;5036410;28;20035;-71
2021/03/15 01:55:24;;;;;;;1.83;0.77;;;;;;;18.61;53.66;101004.31;5053831;28;20029;-72
2021/03/15 01:57:49;;;;;;;2.22;0.77;;;;;;;18.62;53.77;101000.81;5052872;28;20116;-71
2021/03/15 02:00:17;;;;;;;1.23;0.80;;;;;;;18.59;53.51;101010.41;5052566;28;20132;-71
2021/03/15 02:03:01;;;;;;;2.95;0.80;;;;;;;18.60;53.73;101009.53;5053887;28;20064;-71
2021/03/15 02:05:28;;;;;;;1.23;0.80;;;;;;;18.56;53.65;101004.25;5053685;28;20056;-71
2021/03/15 02:07:54;;;;;;;1.92;0.73;;;;;;;18.54;53.43;100999.94;5052957;28;20039;-72
2021/03/15 02:10:19;;;;;;;2.25;0.95;;;;;;;18.53;53.82;101001.69;5052226;28;20025;-71
2021/03/15 02:13:07;;;;;;;2.20;1.13;;;;;;;18.55;53.42;101004.31;5053031;28;20024;-71
2021/03/15 02:15:45;;;;;;;1.60;0.85;;;;;;;18.56;53.64;101008.66;5053962;28;20101;-71
2021/03/15 02:18:16;;;;;;;3.90;1.17;;;;;;;18.58;53.62;101020.00;5053544;28;20100;-71
2021/03/15 02:21:07;;;;;;;1.25;0.80;;;;;;;18.58;53.51;101014.78;5052698;28;20096;-71
2021/03/15 02:23:57;;;;;;;2.97;1.10;;;;;;;18.54;53.57;101016.53;5051717;28;20037;-71
2021/03/15 02:26:50;;;;;;;1.63;1.00;;;;;;;18.57;53.62;101013.00;5053734;28;20029;-71
2021/03/15 02:29:37;;;;;;;2.35;1.00;;;;;;;18.57;53.68;101019.09;5052783;28;20060;-71
2021/03/15 02:32:30;;;;;;;2.30;0.80;;;;;;;18.57;53.47;101020.84;5053689;28;20029;-71
2021/03/15 02:35:10;;;;;;;1.88;0.80;;;;;;;18.52;53.48;101015.66;5052866;28;20039;-71
2021/03/15 02:37:53;;;;;;;1.38;0.65;;;;;;;18.55;53.47;101017.41;5050185;28;20506;-71
2021/03/15 02:40:39;;;;;;;2.20;0.90;;;;;;;18.55;53.54;101020.00;5050270;28;20463;-71
2021/03/15 02:43:09;;;;;;;1.88;0.82;;;;;;;18.55;53.33;101025.25;5048763;28;20028;-71
2021/03/15 02:45:36;;;;;;;1.63;0.80;;;;;;;18.52;53.35;101022.63;5049892;28;20033;-71
2021/03/15 02:48:10;;;;;;;1.58;0.80;;;;;;;18.53;53.16;101027.88;5052573;28;20044;-71
2021/03/15 02:50:39;;;;;;;2.08;1.30;;;;;;;18.46;53.39;101009.53;5052460;28;20045;-71
2021/03/15 02:53:08;;;;;;;2.38;0.88;;;;;;;18.54;53.41;101024.38;5052295;28;20430;-71
2021/03/15 02:55:34;;;;;;;3.13;0.80;;;;;;;18.48;53.51;101005.19;5052755;28;20025;-71
2021/03/15 02:58:03;;;;;;;1.15;0.68;;;;;;;18.47;53.42;101016.53;5035446;28;20076;-71
2021/03/15 03:00:30;;;;;;;1.42;0.90;;;;;;;18.51;53.22;101032.22;5046983;28;20082;-71
2021/03/15 03:02:57;;;;;;;2.40;0.70;;;;;;;18.46;53.39;101020.00;5051471;28;20178;-71
2021/03/15 03:05:23;;;;;;;1.73;0.80;;;;;;;18.49;53.18;101038.34;5051728;28;20079;-71
2021/03/15 03:07:52;;;;;;;4.32;0.85;;;;;;;18.51;53.39;101033.97;5050773;28;20479;-72
2021/03/15 03:10:19;;;;;;;0.85;0.60;;;;;;;18.49;53.34;101041.84;5052055;28;20375;-71
2021/03/15 03:12:47;;;;;;;2.28;0.82;;;;;;;18.47;53.54;101032.22;5052771;28;20498;-71
2021/03/15 03:15:15;;;;;;;2.05;0.75;;;;;;;18.49;53.31;101044.44;5052183;28;20025;-71
2021/03/15 03:17:41;;;;;;;1.50;0.82;;;;;;;18.50;53.29;101047.94;5051195;28;20032;-71
2021/03/15 03:20:10;;;;;;;1.05;0.60;;;;;;;18.42;53.22;101034.00;5051362;28;20032;-72
2021/03/15 03:22:38;;;;;;;1.00;0.85;;;;;;;18.43;53.16;101033.13;5051599;28;20025;-71
2021/03/15 03:25:12;;;;;;;1.95;0.90;;;;;;;18.47;53.29;101053.19;5049319;28;20029;-72
2021/03/15 03:27:39;;;;;;;2.38;0.70;;;;;;;18.44;53.16;101047.94;5050971;28;20033;-71
2021/03/15 03:30:07;;;;;;;1.65;0.85;;;;;;;18.46;53.19;101054.06;5049012;28;20442;-71
2021/03/15 03:32:35;;;;;;;1.83;0.80;;;;;;;18.42;53.23;101058.44;5050946;28;20083;-72
2021/03/15 03:35:02;;;;;;;1.73;0.80;;;;;;;18.46;53.14;101073.25;5049511;28;20086;-71
2021/03/15 03:37:27;;;;;;;5.72;0.95;;;;;;;18.42;53.30;101065.44;5052745;28;20407;-71
2021/03/15 03:39:53;;;;;;;1.60;1.15;;;;;;;18.38;53.38;101061.94;5051109;28;20021;-71
2021/03/15 03:42:18;;;;;;;3.30;0.77;;;;;;;18.38;53.35;101064.56;5033477;28;20025;-71
2021/03/15 03:44:44;;;;;;;1.15;0.60;;;;;;;18.45;53.34;101088.97;5034467;28;20048;-71
2021/03/15 03:47:09;;;;;;;2.13;0.63;;;;;;;18.45;53.17;101081.13;5050628;28;20755;-71
2021/03/15 03:49:34;;;;;;;1.10;0.70;;;;;;;18.44;53.24;101085.47;5049773;28;20032;-71
2021/03/15 03:52:03;;;;;;;3.25;0.98;;;;;;;18.41;53.42;101085.50;5033760;28;20037;-71
2021/03/15 03:54:33;;;;;;;1.95;0.70;;;;;;;18.43;53.30;101099.47;5061047;28;20471;-71
2021/03/15 03:57:05;;;;;;;2.47;1.20;;;;;;;18.43;53.24;101090.75;5050986;28;20028;-71
2021/03/15 03:59:32;;;;;;;1.40;1.25;;;;;;;18.39;53.55;101087.25;5057379;28;20049;-71
2021/03/15 04:02:01;;;;;;;1.67;0.52;;;;;;;18.41;53.31;101101.22;5053472;28;20077;-71
2021/03/15 04:04:30;;;;;;;1.48;0.80;;;;;;;18.42;53.28;101097.72;5053054;28;20029;-71
2021/03/15 04:06:56;;;;;;;1.60;0.90;;;;;;;18.41;53.57;101100.34;5053925;28;20084;-71
2021/03/15 04:09:28;;;;;;;1.08;0.60;;;;;;;18.35;53.36;101093.34;5071066;28;20033;-72
2021/03/15 04:12:02;;;;;;;2.63;0.80;;;;;;;18.41;53.31;101100.34;5067832;28;20032;-71
2021/03/15 04:14:37;;;;;;;2.53;1.08;;;;;;;18.36;53.33;101099.47;5068141;28;20024;-71
2021/03/15 04:17:04;;;;;;;6.38;0.98;;;;;;;18.39;53.40;101115.16;5069163;28;20112;-71
2021/03/15 04:19:38;;;;;;;2.08;0.85;;;;;;;18.34;53.42;101109.06;5019819;28;20065;-71
2021/03/15 04:22:07;;;;;;;1.08;0.65;;;;;;;18.36;53.39;101113.41;5070879;28;20024;-71
2021/03/15 04:24:35;;;;;;;2.10;0.82;;;;;;;18.34;53.33;101115.16;5070971;28;20444;-71
2021/03/15 04:27:01;;;;;;;1.08;0.68;;;;;;;18.36;53.35;101125.63;5072187;28;20028;-71
2021/03/15 04:29:29;;;;;;;1.48;0.80;;;;;;;18.33;53.15;101120.38;5069102;28;20035;-72
2021/03/15 04:31:55;;;;;;;1.27;0.50;;;;;;;18.35;53.18;101124.75;5069979;28;20039;-71
2021/03/15 04:34:22;;;;;;;1.45;0.82;;;;;;;18.36;53.12;101128.25;5071171;28;20065;-71
2021/03/15 04:36:49;;;;;;;2.80;0.70;;;;;;;18.34;53.07;101136.09;5036378;28;20041;-71
2021/03/15 04:39:15;;;;;;;1.27;0.70;;;;;;;18.38;53.18;101137.00;5053958;28;20036;-71
2021/03/15 04:41:41;;;;;;;2.75;1.13;;;;;;;18.37;53.43;101143.09;5052092;28;20037;-71
2021/03/15 04:44:07;;;;;;;1.40;0.90;;;;;;;18.33;53.23;101134.34;5053665;28;20131;-71
2021/03/15 04:46:33;;;;;;;1.20;0.70;;;;;;;18.34;53.27;101145.72;5053202;28;20151;-72
2021/03/15 04:49:06;;;;;;;1.50;0.82;;;;;;;18.33;53.43;101150.06;5052239;28;20487;-71
2021/03/15 04:51:32;;;;;;;1.30;0.88;;;;;;;18.32;53.23;101147.44;5037590;28;20102;-71
2021/03/15 04:53:57;;;;;;;0.82;0.50;;;;;;;18.35;53.10;101157.94;5071730;28;20158;-71
2021/03/15 04:56:24;;;;;;;1.80;0.60;;;;;;;18.35;53.17;101165.78;5053853;28;20050;-71
2021/03/15 04:58:52;;;;;;;2.65;0.93;;;;;;;18.28;53.19;101156.19;5052793;28;20047;-72
2021/03/15 05:01:20;;;;;;;4.53;1.25;;;;;;;18.32;53.13;101165.78;5036958;28;20109;-71
2021/03/15 05:03:50;;;;;;;4.57;1.55;;;;;;;18.32;53.10;101174.50;5074626;28;20493;-71
2021/03/15 05:06:17;;;;;;;3.13;0.93;;;;;;;18.27;53.19;101165.78;5056331;28;20425;-71
2021/03/15 05:08:48;;;;;;;1.45;0.80;;;;;;;18.31;53.14;101171.88;5057259;28;20078;-71
2021/03/15 05:11:13;;;;;;;1.15;0.80;;;;;;;18.25;53.18;101171.88;5075381;28;20025;-71
2021/03/15 05:13:41;;;;;;;1.80;0.80;;;;;;;18.32;53.18;101184.09;5075038;28;20541;-71
2021/03/15 05:16:08;;;;;;;1.13;0.60;;;;;;;18.31;53.07;101190.19;5040641;28;20029;-71
2021/03/15 05:18:34;;;;;;;2.30;1.05;;;;;;;18.27;53.20;101183.25;5053417;28;20039;-71
2021/03/15 05:21:00;;;;;;;2.08;0.80;;;;;;;18.26;53.19;101184.09;5057001;28;20029;-71
2021/03/15 05:23:27;;;;;;;1.38;0.63;;;;;;;18.30;53.10;101191.09;5057153;28;20078;-71
2021/03/15 05:25:55;;;;;;;2.28;0.90;;;;;;;18.25;53.27;101187.59;5055557;28;22233;-71
2021/03/15 05:28:22;;;;;;;1.67;0.60;;;;;;;18.29;52.93;101194.59;5056540;28;20047;-71
2021/03/15 05:30:48;;;;;;;1.85;1.00;;;;;;;18.23;53.05;101192.81;5071272;28;20071;-71
2021/03/15 05:33:15;;;;;;;2.30;0.80;;;;;;;18.29;53.22;101199.81;5071063;28;20074;-73
2021/03/15 05:35:44;;;;;;;4.55;0.73;;;;;;;18.24;52.91;101194.56;5072878;28;20466;-71
2021/03/15 05:38:10;;;;;;;1.90;0.88;;;;;;;18.36;52.99;101204.19;5074760;28;20028;-71
2021/03/15 05:40:38;;;;;;;3.50;0.70;;;;;;;18.34;52.85;101192.84;5056371;28;20081;-72
2021/03/15 05:43:22;;;;;;;1.30;0.70;;;;;;;18.50;52.35;101203.34;5056962;28;20036;-71
2021/03/15 05:46:12;;;;;;;1.42;0.63;;;;;;;18.55;52.39;101206.84;5054777;28;20025;-71
2021/03/15 05:49:05;;;;;;;1.70;0.73;;;;;;;18.56;52.60;101215.56;5057099;28;20489;-74
2021/03/15 05:51:58;;;;;;;15.13;0.97;;;;;;;18.65;52.28;101209.50;5073797;28;20037;-72
2021/03/15 05:54:54;;;;;;;2.72;0.63;;;;;;;18.69;52.29;101214.75;5073224;28;20035;-72
2021/03/15 05:57:44;;;;;;;3.42;0.65;;;;;;;18.61;52.34;101212.97;5069227;28;20032;-72
2021/03/15 06:00:47;;;;;;;4.07;0.98;;;;;;;18.67;52.48;101220.84;5073097;28;20048;-72
2021/03/15 06:03:58;;;;;;;1.05;0.60;;;;;;;18.70;52.45;101229.56;5056416;28;20056;-72
2021/03/15 06:06:27;;;;;;;1.15;0.60;;;;;;;18.65;52.34;101220.84;5038203;28;20083;-72
2021/03/15 06:09:01;;;;;;;0.77;0.50;;;;;;;18.67;52.43;101226.09;5070660;28;20383;-78
2021/03/15 06:11:36;;;;;;;1.83;0.75;;;;;;;18.80;52.02;101233.94;5073708;28;20055;-77
2021/03/15 06:14:01;;;;;;;1.60;0.68;;;;;;;18.83;52.01;101238.28;5056479;28;20455;-77
2021/03/15 06:16:27;;;;;;;1.45;0.68;;;;;;;18.86;52.19;101233.06;5074756;28;20045;-77
2021/03/15 06:18:58;;;;;;;2.88;1.08;;;;;;;18.78;52.14;101225.22;5057110;28;20127;-76
2021/03/15 06:21:24;;;;;;;3.38;1.60;;;;;;;18.77;52.45;101227.81;5056911;28;20024;-77
2021/03/15 06:23:50;;;;;;;3.72;1.52;;;;;;;18.79;52.58;101234.81;5040356;28;20047;-77
2021/03/15 06:26:16;;;;;;;8.45;1.70;;;;;;;18.85;52.60;101240.03;5074270;28;20100;-77
2021/03/15 06:28:42;;;;;;;4.85;1.13;;;;;;;18.82;52.51;101234.81;5074324;28;20024;-77
2021/03/15 06:31:09;;;;;;;6.55;1.40;;;;;;;18.80;52.69;101244.44;5055474;28;20479;-77
2021/03/15 06:33:35;;;;;;;4.47;1.67;;;;;;;18.87;52.78;101242.66;5056607;28;20032;-79
2021/03/15 06:36:03;;;;;;;4.05;1.30;;;;;;;18.92;52.42;101249.66;5074532;28;20379;-78
2021/03/15 06:38:29;;;;;;;2.83;1.50;;;;;;;18.89;52.40;101254.91;5055822;28;20123;-78
2021/03/15 06:40:57;;;;;;;5.10;1.80;;;;;;;18.82;52.78;101247.94;5052111;28;20470;-77
2021/03/15 06:43:23;;;;;;;5.00;1.40;;;;;;;18.91;52.51;101250.53;5026727;28;20112;-77
2021/03/15 06:45:50;;;;;;;2.63;1.45;;;;;;;18.95;52.43;101256.66;5038974;28;20123;-77
2021/03/15 06:48:15;;;;;;;2.72;1.42;;;;;;;18.88;52.60;101261.00;5048105;28;20420;-79
2021/03/15 06:50:41;;;;;;;4.78;1.33;;;;;;;18.92;52.57;101268.00;5032040;28;20115;-75
2021/03/15 06:53:06;;;;;;;4.95;1.73;;;;;;;18.99;52.44;101265.38;5071535;28;20078;-76
2021/03/15 06:55:45;;;;;;;3.65;1.20;;;;;;;19.03;52.36;101278.50;5020857;28;20021;-76
2021/03/15 06:58:33;;;;;;;4.13;1.05;;;;;;;18.90;52.60;101267.13;5066728;28;20360;-76
2021/03/15 07:01:18;;;;;;;4.35;1.17;;;;;;;19.02;52.59;101287.22;5054632;28;20041;-76
2021/03/15 07:03:45;;;;;;;3.05;1.48;;;;;;;19.02;52.26;101286.34;5055217;28;20032;-77
2021/03/15 07:06:12;;;;;;;4.32;1.55;;;;;;;18.95;52.46;101290.72;5051836;28;20029;-76
2021/03/15 07:08:40;;;;;;;3.25;1.23;;;;;;;18.98;52.54;101295.06;5054405;28;20035;-76
2021/03/15 07:11:23;;;;;;;5.60;1.65;;;;;;;19.07;52.40;101302.97;5069548;28;20035;-76
2021/03/15 07:13:49;;;;;;;;;;;;;;;19.04;52.31;101314.31;5067472;28;20028;-76
2021/03/15 07:16:28;;;;;;;4.90;1.17;;;;;;;18.99;52.38;101313.44;5047646;28;19913;-77
2021/03/15 07:18:54;;;;;;;6.63;1.65;;;;;;;19.01;52.40;101309.06;5054916;28;20028;-77
2021/03/15 07:21:39;;;;;;;3.50;1.45;;;;;;;19.06;52.15;101312.56;5039297;28;20024;-76
2021/03/15 07:24:09;;;;;;;3.55;1.30;;;;;;;19.04;52.29;101314.31;5046116;28;20125;-77
2021/03/15 07:26:39;;;;;;;3.92;1.95;;;;;;;18.94;52.36;101302.09;5073393;28;20028;-77
2021/03/15 07:29:11;;;;;;;3.08;1.15;;;;;;;19.11;52.12;101323.91;5039941;28;20024;-77
2021/03/15 07:31:37;;;;;;;3.03;1.50;;;;;;;19.07;52.07;101319.56;5053555;28;20025;-76
2021/03/15 07:34:02;;;;;;;2.10;1.15;;;;;;;19.08;52.10;101321.31;5053554;28;20025;-76
2021/03/15 07:36:29;;;;;;;3.10;1.40;;;;;;;19.05;52.29;101316.06;5054314;28;20479;-78
2021/03/15 07:38:56;;;;;;;3.80;1.10;;;;;;;19.12;52.02;101325.66;5047578;28;20124;-75
2021/03/15 07:41:23;;;;;;;1.33;0.82;;;;;;;19.20;51.86;101331.78;5037654;28;20506;-77
2021/03/15 07:43:50;;;;;;;4.00;1.40;;;;;;;19.20;52.11;101329.19;5072448;28;20032;-77
2021/03/15 07:46:27;;;;;;;3.03;1.10;;;;;;;19.26;51.70;101333.53;5066878;28;20063;-77
2021/03/15 07:48:55;;;;;;;3.40;0.90;;;;;;;19.24;51.61;101341.38;5053385;28;20054;-76
2021/03/15 07:51:35;;;;;;;3.47;1.10;;;;;;;19.20;51.92;101342.28;5063307;28;20024;-78
2021/03/15 07:54:08;;;;;;;2.35;1.33;;;;;;;19.25;51.68;101350.13;5048031;28;20032;-77
2021/03/15 07:56:35;;;;;;;2.85;0.80;;;;;;;19.33;51.55;101361.50;5051340;28;20390;-77
2021/03/15 07:59:00;;;;;;;4.43;1.33;;;;;;;19.32;51.79;101357.13;5045045;28;20043;-77
2021/03/15 08:01:26;;;;;;;4.85;1.25;;;;;;;19.32;51.58;101375.50;5048177;28;20025;-77
2021/03/15 08:03:52;;;;;;;2.60;1.13;;;;;;;19.37;51.68;101383.34;5052002;28;20422;-77
2021/03/15 08:06:21;;;;;;;1.45;1.15;;;;;;;19.33;51.57;101371.13;5065506;28;20099;-77
2021/03/15 08:08:47;;;;;;;2.90;1.35;;;;;;;19.33;51.81;101379.88;5051536;28;20401;-77
2021/03/15 08:11:14;;;;;;;3.50;1.42;;;;;;;19.38;51.66;101383.34;5069410;28;20394;-77
2021/03/15 08:13:52;;;;;;;2.15;1.13;;;;;;;19.43;51.52;101385.97;5055108;28;20020;-77
2021/03/15 08:16:22;;;;;;;5.82;2.13;;;;;;;19.39;51.54;101387.72;5050268;28;20020;-77
2021/03/15 08:18:49;;;;;;;3.13;1.33;;;;;;;19.34;51.48;101392.09;5061211;28;20082;-77
2021/03/15 08:21:25;;;;;;;3.03;1.42;;;;;;;19.39;51.33;101386.84;5054979;28;20043;-77
2021/03/15 08:23:52;;;;;;;1.38;0.77;;;;;;;19.42;51.49;101402.59;5064675;28;20090;-77
2021/03/15 08:26:18;;;;;;;3.38;1.15;;;;;;;19.37;51.22;101396.47;5065838;28;20037;-77
2021/03/15 08:28:44;;;;;;;4.07;1.25;;;;;;;19.42;51.53;101413.97;5054778;28;20027;-77
2021/03/15 08:31:22;;;;;;;3.42;1.10;;;;;;;19.45;51.49;101410.47;5035584;28;20024;-77
2021/03/15 08:33:49;;;;;;;2.83;1.13;;;;;;;19.41;51.46;101401.72;5067968;28;20025;-77
2021/03/15 08:36:16;;;;;;;1.70;0.80;;;;;;;19.45;51.33;101407.84;5060626;28;20017;-77
2021/03/15 08:38:41;;;;;;;1.90;1.00;;;;;;;19.47;51.39;101414.84;5068488;28;20036;-77
2021/03/15 08:41:08;;;;;;;3.08;1.27;;;;;;;19.49;51.37;101418.34;5057967;28;20040;-77
2021/03/15 08:43:45;;;;;;;2.83;0.90;;;;;;;19.47;51.43;101422.72;5076627;28;20025;-77
2021/03/15 08:46:10;;;;;;;2.58;0.80;;;;;;;19.48;51.42;101429.69;5041525;28;20398;-77
2021/03/15 08:48:38;;;;;;;1.58;0.85;;;;;;;19.51;51.27;101432.34;5076438;28;20031;-77
2021/03/15 08:51:08;;;;;;;2.38;1.00;;;;;;;19.44;51.36;101417.47;5056796;28;21458;-76
2021/03/15 08:53:37;;;;;;;1.15;0.70;;;;;;;19.50;51.39;101435.84;5075794;28;20037;-77
2021/03/15 08:56:33;;;;;;;3.22;1.45;;;;;;;19.54;51.18;101441.97;5074154;28;20047;-77
2021/03/15 08:59:00;;;;;;;1.88;1.05;;;;;;;19.53;50.90;101446.34;5052350;28;20036;-77
2021/03/15 09:01:50;;;;;;;1.90;0.95;;;;;;;19.52;51.23;101454.19;5073535;28;20119;-77
2021/03/15 09:04:40;;;;;;;1.63;0.68;;;;;;;19.55;51.17;101454.22;5059021;28;20032;-77
2021/03/15 09:07:31;;;;;;;2.85;0.60;;;;;;;19.52;51.21;101455.06;5071892;28;20471;-77
2021/03/15 09:09:57;;;;;;;2.28;0.70;;;;;;;19.46;51.37;101454.19;5075561;28;20530;-77
2021/03/15 09:12:23;;;;;;;0.82;0.60;;;;;;;19.50;51.04;101456.81;5056055;28;20031;-77
2021/03/15 09:14:56;;;;;;;1.65;0.85;;;;;;;19.47;51.10;101454.19;5071153;28;20028;-77
2021/03/15 09:17:22;;;;;;;1.83;0.98;;;;;;;19.52;51.22;101473.44;5053637;28;20363;-77
2021/03/15 09:19:48;;;;;;;1.80;1.13;;;;;;;19.50;51.16;101462.06;5074902;28;20035;-76
2021/03/15 09:22:32;;;;;;;2.13;0.82;;;;;;;19.53;51.01;101466.44;5057139;28;20063;-78
2021/03/15 09:24:58;;;;;;;2.90;1.25;;;;;;;19.56;51.07;101477.81;5056031;28;20021;-77
2021/03/15 09:27:40;;;;;;;2.55;1.13;;;;;;;19.47;51.06;101472.56;5074942;28;20381;-78
2021/03/15 09:30:35;;;;;;;2.67;0.90;;;;;;;19.45;51.15;101479.53;5054170;28;20033;-77
2021/03/15 09:33:00;;;;;;;1.30;0.70;;;;;;;19.45;51.31;101486.53;5053320;28;20560;-77
2021/03/15 09:35:35;;;;;;;5.63;0.80;;;;;;;19.37;51.35;101478.63;5043375;28;20017;-77
2021/03/15 09:38:07;;;;;;;1.88;1.20;;;;;;;19.33;51.26;101476.03;5054490;28;20470;-77
2021/03/15 09:40:44;;;;;;;0.95;0.50;;;;;;;19.34;51.33;101477.78;5068662;28;20024;-78
2021/03/15 09:43:10;;;;;;;1.35;0.70;;;;;;;19.34;51.46;101486.53;5074988;28;20478;-77
2021/03/15 09:45:35;;;;;;;1.92;1.00;;;;;;;19.36;51.47;101491.75;5072636;28;20067;-78
2021/03/15 09:48:03;;;;;;;2.08;1.08;;;;;;;19.34;51.46;101502.25;5056483;28;20158;-77
2021/03/15 09:50:33;;;;;;;1.55;0.70;;;;;;;19.33;51.48;101508.38;5064009;28;20082;-75
2021/03/15 09:53:09;;;;;;;2.58;0.90;;;;;;;19.26;51.40;101491.72;5074931;28;20359;-77
2021/03/15 09:55:34;;;;;;;1.83;0.82;;;;;;;19.31;51.56;101504.88;5074228;28;20056;-78
2021/03/15 09:58:07;;;;;;;3.13;0.98;;;;;;;19.25;51.51;101502.22;5065346;28;20064;-77
2021/03/15 10:00:33;;;;;;;6.88;1.75;;;;;;;19.33;51.48;101512.75;5054102;28;20045;-77
2021/03/15 10:02:59;;;;;;;1.45;0.70;;;;;;;19.31;51.49;101506.59;5073002;28;20043;-76
2021/03/15 10:05:24;;;;;;;3.22;1.00;;;;;;;19.22;51.66;101502.19;5069975;28;20077;-77
2021/03/15 10:07:50;;;;;;;2.78;1.17;;;;;;;19.28;51.60;101507.47;5039247;28;20368;-77
2021/03/15 10:10:17;;;;;;;1.77;1.00;;;;;;;19.20;51.47;101509.22;5074133;28;20060;-77
2021/03/15 10:12:43;;;;;;;2.47;0.90;;;;;;;19.26;51.53;101514.47;5054946;28;20020;-77
2021/03/15 10:15:11;;;;;;;1.50;0.85;;;;;;;19.23;51.36;101515.31;5073982;28;20024;-77
2021/03/15 10:17:37;;;;;;;1.63;0.85;;;;;;;19.18;51.55;101506.59;5072398;28;20076;-77
2021/03/15 10:20:08;;;;;;;1.80;0.70;;;;;;;19.20;51.43;101510.09;5074459;28;20028;-77
2021/03/15 10:22:34;;;;;;;3.08;1.17;;;;;;;19.25;51.53;101528.44;5067684;28;20077;-77
2021/03/15 10:25:00;;;;;;;3.97;1.13;;;;;;;19.22;51.31;101520.56;5075062;28;20064;-76
2021/03/15 10:27:28;;;;;;;3.10;1.10;;;;;;;19.18;51.26;101518.81;5048282;28;20058;-77
2021/03/15 10:29:56;;;;;;;1.80;0.77;;;;;;;19.21;51.29;101526.69;5056151;28;20124;-76
2021/03/15 10:32:27;;;;;;;3.50;1.05;;;;;;;19.20;51.32;101533.69;5071069;28;20028;-77
2021/03/15 10:34:58;;;;;;;1.30;0.80;;;;;;;19.21;51.31;101530.16;5065690;28;20031;-77
2021/03/15 10:37:24;;;;;;;1.40;0.70;;;;;;;19.18;51.14;101532.81;5073706;28;20028;-77
2021/03/15 10:39:51;;;;;;;4.18;1.45;;;;;;;19.23;51.28;101541.53;5073694;28;20353;-77
2021/03/15 10:42:19;;;;;;;3.47;0.88;;;;;;;19.22;51.31;101544.16;5055646;28;20040;-77
2021/03/15 10:44:45;;;;;;;3.03;0.73;;;;;;;19.22;51.32;101550.28;5074006;28;20028;-77
2021/03/15 10:47:13;;;;;;;3.13;0.95;;;;;;;19.22;51.34;101545.03;5048481;28;20536;-77
2021/03/15 10:49:38;;;;;;;1.77;1.05;;;;;;;19.15;51.18;101543.28;5052148;28;20425;-77
2021/03/15 10:52:03;;;;;;;4.25;0.70;;;;;;;19.19;51.34;101552.91;5066372;28;20044;-77
2021/03/15 10:54:33;;;;;;;1.50;0.98;;;;;;;19.15;51.24;101543.28;5072279;28;20020;-77
2021/03/15 10:57:19;;;;;;;2.08;1.00;;;;;;;19.18;51.38;101551.16;5071519;28;20448;-77
2021/03/15 10:59:46;;;;;;;2.17;1.10;;;;;;;19.18;51.51;101558.16;5070503;28;20518;-76
2021/03/15 11:02:23;;;;;;;1.45;0.80;;;;;;;19.23;51.31;101564.25;5061351;28;20103;-77
2021/03/15 11:04:57;;;;;;;1.58;0.77;;;;;;;19.27;51.28;101563.41;5058784;28;20361;-77
2021/03/15 11:07:28;;;;;;;1.10;0.65;;;;;;;19.26;51.20;101566.91;5065050;28;20493;-78
2021/03/15 11:09:55;;;;;;;2.03;1.08;;;;;;;19.29;51.26;101572.16;5055344;28;20025;-77
2021/03/15 11:12:42;;;;;;;2.78;0.93;;;;;;;19.36;51.02;101566.06;5035420;28;20051;-77
2021/03/15 11:15:13;;;;;;;1.58;0.80;;;;;;;19.38;50.88;101573.94;5068783;28;20408;-76
2021/03/15 11:17:39;;;;;;;1.98;1.05;;;;;;;19.39;51.08;101573.06;5072459;28;20391;-76
2021/03/15 11:20:08;;;;;;;2.05;0.80;;;;;;;19.43;50.60;101575.72;5021329;28;20039;-76
2021/03/15 11:22:50;;;;;;;2.10;1.25;;;;;;;19.54;50.50;101587.13;5073162;28;20036;-77
2021/03/15 11:25:17;;;;;;;1.42;0.77;;;;;;;19.49;50.56;101581.00;5071602;28;20032;-77
2021/03/15 11:27:50;;;;;;;2.17;0.95;;;;;;;19.49;50.79;101590.59;5070053;28;20035;-77
2021/03/15 11:30:20;;;;;;;2.38;0.82;;;;;;;19.42;50.73;101592.31;5072587;28;20458;-76
2021/03/15 11:32:46;;;;;;;1.27;0.65;;;;;;;19.40;51.10;101585.31;5065249;28;20032;-71
2021/03/15 11:35:19;;;;;;;2.33;0.60;;;;;;;19.42;50.91;101592.31;5045148;28;20116;-71
2021/03/15 11:37:48;;;;;;;1.60;0.77;;;;;;;19.38;51.06;101598.41;5066854;28;20478;-71